East Rupert, Vermont
Current Conditions -  °F | °C
As of 8:35 AM on Friday 19 Dec 2014 (Local Time) from KRUT Reporting Station
Overcast Overcast  
Wind Chill: 17°   Ceiling: 2200
Heat Index: 27°   Visibility: 10mi
Dew Point: 19°   Wind: 9mph
Humidity: 74%   Direction: 310°NW
Pressure: 29.98"   Gusts: NA
Location:  43.358°N, 73.1349°W
Report Text: KRUT 191335Z 31008KT 10SM OVC022 M03/M07 A2998 RMK AO1
Loading
Personal Weather Stations






























Interactive Weather Map New forecast layout! Learn more

10-Day Weather Forecast

Advertisements
Track Severe Weather on mobile